Oxford House, Canada
Current Conditions -  °F | °C
As of 11:00 PM on Wednesday 22 Oct 2014 (Local Time) from CYIV Reporting Station
Overcast Overcast  
Wind Chill: 52°   Ceiling: 3500
Heat Index: 52°   Visibility: 15mi
Dew Point: 45°   Wind: 6mph
Humidity: 76%   Direction: 140°SE
Pressure: 29.69"   Gusts: NA
Location:  54.95°N, 95.27°W
Report Text: CYIV 230400Z 14005KT 15SM OVC035 11/07 A2969 RMK SC8 SLP061
Loading
Personal Weather Stations






























Interactive Weather Map
Tropical Storm Tracking
New forecast layout! Learn more

10-Day Weather Forecast

Advertisements
Track Severe Weather on mobile